Bethlehem, Mississippi
Current Conditions -  °F | °C
As of 7:35 AM on Saturday 20 Dec 2014 (Local Time) from KUOX Reporting Station
Haze Haze  
Wind Chill: 30°   Ceiling: Unl
Heat Index: 30°   Visibility: 2.5mi
Dew Point: 30°   Wind: 3mph
Humidity: 100%   Direction: 50°NE
Pressure: 30.28"   Gusts: NA
Location:  34.5725°N, 89.3417°W
Report Text: KUOX 201335Z AUTO 05003KT 2 1/2SM BR CLR M01/M01 A3028 RMK AO2 PWINO PNO
Loading
Personal Weather Stations






























Interactive Weather Map New forecast layout! Learn more

10-Day Weather Forecast

Advertisements
Track Severe Weather on mobile